ENSD/SDN METAR and TAF weather

Enter ICAO airport designator
Station Type Date Time Source
ENSD METAR 2022/06/28 15:20 UTC NOAA

ENSD 281520Z 08009KT 9999 FEW040 BKN060 16/12 Q1017 RMK WIND RWY26 08009KT WIND 1140FT 05005KT


Station Type Date Time Source
ENSD Decoded METAR 2022/06/28 15:20 UTC NOAA

Sandane / Anda, Norway (ENSD) 61-50N 006-07E 60M
Jun 28, 2022 - 11:20 AM EDT / 2022.06.28 1520 UTC
Wind: from the E (080 degrees) at 10 MPH (9 KT):0
Visibility: greater than 7 mile(s):0
Sky conditions: mostly cloudy
Temperature: 60 F (16 C)
Dew Point: 53 F (12 C)
Relative Humidity: 77%
Pressure (altimeter): 30.03 in. Hg (1017 hPa)
ob: ENSD 281520Z 08009KT 9999 FEW040 BKN060 16/12 Q1017 RMK WIND RWY26 08009KT WIND 1140FT 05005KT
cycle: 15

Station Type Date Time Source
ENSD TAF UTC NOAA

Error!

Example: see airport list